KMNN/MNN METAR and TAF weather

Enter ICAO airport designator
Station Type Date Time Source
KMNN METAR 2022/01/29 13:53 UTC NOAA

KMNN 291353Z AUTO 31003KT 5SM BR CLR M17/M18 A3022 RMK AO2 SLP258 I1000 T11671178


Station Type Date Time Source
KMNN Decoded METAR 2022/01/29 13:53 UTC NOAA

MARION MUNICIPAL AIRPORT, OH, United States (KMNN) 40-37N 83-04W 301M
Jan 29, 2022 - 08:53 AM EST / 2022.01.29 1353 UTC
Wind: from the NW (310 degrees) at 3 MPH (3 KT):0
Visibility: 5 mile(s):0
Sky conditions: clear
Weather: mist
Temperature: 1.9 F (-16.7 C)
Dew Point: -0.0 F (-17.8 C)
Relative Humidity: 91%
Pressure (altimeter): 30.22 in. Hg (1023 hPa)
ob: KMNN 291353Z AUTO 31003KT 5SM BR CLR M17/M18 A3022 RMK AO2 SLP258 I1000 T11671178
cycle: 14

Station Type Date Time Source
KMNN TAF UTC NOAA

Error!

Example: see airport list